aviador You're here:

KMLT Decoded Metar

MILLINOCKET in ME, USA
Report Time2017-08-06 07:53:00
UTC Time2017-08-18 03:07:35
Flight Rules Old
WindCalm
Visibility9999 m
Phenomena:N/A
Clouds:Broken 007 Hf
Broken 021 Hf
Overcast 025 Hf
Ceiling700 ft
Temp17°C (ISA +3)
Dew Point17°C (100% RH)
QNH1009 hPa
Density Alt1,129 ft
Elevation404 ft
Report Wrong Elevation
Raw Report
METAR KMLT 060753Z AUTO 00000KT 10SM BKN007 BKN021 OVC025 17/17 A2979
RMK AO2 CIG 005V010 SLP090 T01720172 TSNO=

Extra information for KMLT:More info

Metar Taf Metar & Taf Last 4 Metars F.Rules Stats Wind Profile Meteogram Temp Stats Airport Information Weather charts Add Link Nearby VenuesMetar ALERT Operation Metar Decoded Social comments

AIRNAV info for KMLT